sensor_id;sensor_type;location;lat;lon;timestamp;P1;durP1;ratioP1;P2;durP2;ratioP2
81716;SDS011;71269;44.108;3.074;2023-10-19T00:01:15;14.65;;;8.45;;
81716;SDS011;71269;44.108;3.074;2023-10-19T00:03:42;14.15;;;7.75;;
81716;SDS011;71269;44.108;3.074;2023-10-19T00:06:10;12.95;;;7.53;;
81716;SDS011;71269;44.108;3.074;2023-10-19T00:08:39;12.98;;;7.25;;
81716;SDS011;71269;44.108;3.074;2023-10-19T00:11:07;13.65;;;7.80;;
81716;SDS011;71269;44.108;3.074;2023-10-19T00:13:46;15.75;;;7.78;;
81716;SDS011;71269;44.108;3.074;2023-10-19T00:16:15;12.25;;;7.70;;
81716;SDS011;71269;44.108;3.074;2023-10-19T00:18:47;11.95;;;7.53;;
81716;SDS011;71269;44.108;3.074;2023-10-19T00:21:13;12.45;;;7.32;;
81716;SDS011;71269;44.108;3.074;2023-10-19T00:23:49;14.20;;;7.65;;
81716;SDS011;71269;44.108;3.074;2023-10-19T00:26:16;17.70;;;7.80;;
81716;SDS011;71269;44.108;3.074;2023-10-19T00:28:46;13.35;;;7.43;;
81716;SDS011;71269;44.108;3.074;2023-10-19T00:31:14;14.05;;;7.07;;
81716;SDS011;71269;44.108;3.074;2023-10-19T00:33:40;13.40;;;7.13;;
81716;SDS011;71269;44.108;3.074;2023-10-19T00:36:08;15.23;;;7.18;;
81716;SDS011;71269;44.108;3.074;2023-10-19T00:38:41;14.43;;;7.22;;
81716;SDS011;71269;44.108;3.074;2023-10-19T00:41:18;12.10;;;7.00;;
81716;SDS011;71269;44.108;3.074;2023-10-19T00:43:56;13.40;;;7.07;;
81716;SDS011;71269;44.108;3.074;2023-10-19T00:46:25;14.07;;;7.05;;
81716;SDS011;71269;44.108;3.074;2023-10-19T00:49:08;12.75;;;6.65;;
81716;SDS011;71269;44.108;3.074;2023-10-19T00:54:20;13.05;;;7.03;;
81716;SDS011;71269;44.108;3.074;2023-10-19T00:57:17;10.65;;;6.70;;
81716;SDS011;71269;44.108;3.074;2023-10-19T00:59:57;12.32;;;7.30;;
81716;SDS011;71269;44.108;3.074;2023-10-19T01:02:36;11.60;;;6.80;;
81716;SDS011;71269;44.108;3.074;2023-10-19T01:05:08;12.10;;;6.68;;
81716;SDS011;71269;44.108;3.074;2023-10-19T01:07:38;12.15;;;6.80;;
81716;SDS011;71269;44.108;3.074;2023-10-19T01:10:04;11.18;;;6.03;;
81716;SDS011;71269;44.108;3.074;2023-10-19T01:12:33;11.02;;;6.63;;
81716;SDS011;71269;44.108;3.074;2023-10-19T01:15:11;12.95;;;6.28;;
81716;SDS011;71269;44.108;3.074;2023-10-19T01:17:58;10.60;;;6.18;;
81716;SDS011;71269;44.108;3.074;2023-10-19T01:20:25;10.63;;;6.22;;
81716;SDS011;71269;44.108;3.074;2023-10-19T01:22:59;11.68;;;6.63;;
81716;SDS011;71269;44.108;3.074;2023-10-19T01:25:32;11.07;;;6.18;;
81716;SDS011;71269;44.108;3.074;2023-10-19T01:31:11;10.00;;;5.75;;
81716;SDS011;71269;44.108;3.074;2023-10-19T01:33:53;10.88;;;5.97;;
81716;SDS011;71269;44.108;3.074;2023-10-19T01:36:32;9.77;;;5.85;;
81716;SDS011;71269;44.108;3.074;2023-10-19T01:39:07;10.20;;;6.03;;
81716;SDS011;71269;44.108;3.074;2023-10-19T01:41:36;11.82;;;5.95;;
81716;SDS011;71269;44.108;3.074;2023-10-19T01:44:01;11.23;;;6.38;;
81716;SDS011;71269;44.108;3.074;2023-10-19T01:46:31;11.25;;;5.82;;
81716;SDS011;71269;44.108;3.074;2023-10-19T01:48:59;10.60;;;6.00;;
81716;SDS011;71269;44.108;3.074;2023-10-19T01:51:27;10.23;;;6.13;;
81716;SDS011;71269;44.108;3.074;2023-10-19T01:53:57;11.27;;;6.38;;
81716;SDS011;71269;44.108;3.074;2023-10-19T01:58:51;10.10;;;5.95;;
81716;SDS011;71269;44.108;3.074;2023-10-19T02:01:19;10.48;;;5.93;;
81716;SDS011;71269;44.108;3.074;2023-10-19T02:06:46;10.45;;;5.40;;
81716;SDS011;71269;44.108;3.074;2023-10-19T02:09:13;10.25;;;5.78;;
81716;SDS011;71269;44.108;3.074;2023-10-19T02:11:49;9.45;;;5.38;;
81716;SDS011;71269;44.108;3.074;2023-10-19T02:14:18;10.60;;;5.97;;
81716;SDS011;71269;44.108;3.074;2023-10-19T02:16:51;9.95;;;5.15;;
81716;SDS011;71269;44.108;3.074;2023-10-19T02:19:18;9.77;;;5.72;;
81716;SDS011;71269;44.108;3.074;2023-10-19T02:22:19;9.63;;;5.57;;
81716;SDS011;71269;44.108;3.074;2023-10-19T02:24:38;8.63;;;5.65;;
81716;SDS011;71269;44.108;3.074;2023-10-19T02:27:04;8.23;;;5.15;;
81716;SDS011;71269;44.108;3.074;2023-10-19T02:29:29;10.07;;;5.78;;
81716;SDS011;71269;44.108;3.074;2023-10-19T02:31:56;10.48;;;5.75;;
81716;SDS011;71269;44.108;3.074;2023-10-19T02:34:21;9.23;;;5.30;;
81716;SDS011;71269;44.108;3.074;2023-10-19T02:36:48;9.30;;;5.18;;
81716;SDS011;71269;44.108;3.074;2023-10-19T02:39:13;9.55;;;5.70;;
81716;SDS011;71269;44.108;3.074;2023-10-19T02:41:40;10.52;;;5.68;;
81716;SDS011;71269;44.108;3.074;2023-10-19T02:44:25;9.27;;;5.32;;
81716;SDS011;71269;44.108;3.074;2023-10-19T02:46:51;9.45;;;5.25;;
81716;SDS011;71269;44.108;3.074;2023-10-19T02:49:19;9.07;;;4.68;;
81716;SDS011;71269;44.108;3.074;2023-10-19T02:51:45;8.27;;;5.10;;
81716;SDS011;71269;44.108;3.074;2023-10-19T02:54:12;10.27;;;5.18;;
81716;SDS011;71269;44.108;3.074;2023-10-19T02:56:44;9.57;;;5.13;;
81716;SDS011;71269;44.108;3.074;2023-10-19T02:59:13;8.82;;;5.55;;
81716;SDS011;71269;44.108;3.074;2023-10-19T03:01:40;9.75;;;5.43;;
81716;SDS011;71269;44.108;3.074;2023-10-19T03:04:09;9.73;;;5.32;;
81716;SDS011;71269;44.108;3.074;2023-10-19T03:06:37;8.02;;;5.22;;
81716;SDS011;71269;44.108;3.074;2023-10-19T03:09:04;9.30;;;5.38;;
81716;SDS011;71269;44.108;3.074;2023-10-19T03:11:38;9.07;;;5.45;;
81716;SDS011;71269;44.108;3.074;2023-10-19T03:14:05;9.27;;;5.15;;
81716;SDS011;71269;44.108;3.074;2023-10-19T03:16:31;9.18;;;5.57;;
81716;SDS011;71269;44.108;3.074;2023-10-19T03:18:57;8.05;;;4.78;;
81716;SDS011;71269;44.108;3.074;2023-10-19T03:21:22;8.90;;;5.05;;
81716;SDS011;71269;44.108;3.074;2023-10-19T03:23:57;9.20;;;5.28;;
81716;SDS011;71269;44.108;3.074;2023-10-19T03:26:26;9.20;;;5.25;;
81716;SDS011;71269;44.108;3.074;2023-10-19T03:29:14;8.82;;;5.50;;
81716;SDS011;71269;44.108;3.074;2023-10-19T03:31:40;9.55;;;5.50;;
81716;SDS011;71269;44.108;3.074;2023-10-19T03:34:12;8.90;;;4.90;;
81716;SDS011;71269;44.108;3.074;2023-10-19T03:36:39;9.48;;;5.35;;
81716;SDS011;71269;44.108;3.074;2023-10-19T03:39:04;8.40;;;4.88;;
81716;SDS011;71269;44.108;3.074;2023-10-19T03:41:37;8.68;;;4.75;;
81716;SDS011;71269;44.108;3.074;2023-10-19T03:44:04;7.80;;;4.68;;
81716;SDS011;71269;44.108;3.074;2023-10-19T03:46:30;8.63;;;5.07;;
81716;SDS011;71269;44.108;3.074;2023-10-19T03:49:02;7.68;;;4.80;;
81716;SDS011;71269;44.108;3.074;2023-10-19T03:51:39;8.55;;;4.53;;
81716;SDS011;71269;44.108;3.074;2023-10-19T03:54:08;7.80;;;4.88;;
81716;SDS011;71269;44.108;3.074;2023-10-19T03:56:48;9.10;;;4.53;;
81716;SDS011;71269;44.108;3.074;2023-10-19T03:59:15;9.00;;;4.47;;
81716;SDS011;71269;44.108;3.074;2023-10-19T04:01:42;7.68;;;4.68;;
81716;SDS011;71269;44.108;3.074;2023-10-19T04:04:09;9.00;;;4.85;;
81716;SDS011;71269;44.108;3.074;2023-10-19T04:06:34;7.15;;;4.50;;
81716;SDS011;71269;44.108;3.074;2023-10-19T04:09:00;7.30;;;4.43;;
81716;SDS011;71269;44.108;3.074;2023-10-19T04:11:26;7.15;;;4.45;;
81716;SDS011;71269;44.108;3.074;2023-10-19T04:13:58;7.72;;;4.70;;
81716;SDS011;71269;44.108;3.074;2023-10-19T04:16:28;10.82;;;4.93;;
81716;SDS011;71269;44.108;3.074;2023-10-19T04:18:55;6.75;;;4.35;;
81716;SDS011;71269;44.108;3.074;2023-10-19T04:21:20;8.38;;;4.18;;
81716;SDS011;71269;44.108;3.074;2023-10-19T04:23:45;7.90;;;4.47;;
81716;SDS011;71269;44.108;3.074;2023-10-19T04:26:12;8.00;;;4.65;;
81716;SDS011;71269;44.108;3.074;2023-10-19T04:28:39;7.88;;;4.75;;
81716;SDS011;71269;44.108;3.074;2023-10-19T04:31:15;7.03;;;3.90;;
81716;SDS011;71269;44.108;3.074;2023-10-19T04:33:44;7.80;;;4.57;;
81716;SDS011;71269;44.108;3.074;2023-10-19T04:36:11;9.15;;;4.55;;
81716;SDS011;71269;44.108;3.074;2023-10-19T04:38:37;8.55;;;4.63;;
81716;SDS011;71269;44.108;3.074;2023-10-19T04:41:15;8.35;;;4.32;;
81716;SDS011;71269;44.108;3.074;2023-10-19T04:43:41;9.50;;;4.07;;
81716;SDS011;71269;44.108;3.074;2023-10-19T04:46:09;8.10;;;3.97;;
81716;SDS011;71269;44.108;3.074;2023-10-19T04:48:41;8.77;;;4.35;;
81716;SDS011;71269;44.108;3.074;2023-10-19T04:51:07;8.25;;;4.30;;
81716;SDS011;71269;44.108;3.074;2023-10-19T04:53:34;7.95;;;3.80;;
81716;SDS011;71269;44.108;3.074;2023-10-19T04:55:59;8.30;;;4.30;;
81716;SDS011;71269;44.108;3.074;2023-10-19T04:58:28;7.43;;;4.32;;
81716;SDS011;71269;44.108;3.074;2023-10-19T05:00:54;6.93;;;3.70;;
81716;SDS011;71269;44.108;3.074;2023-10-19T05:03:20;6.68;;;3.65;;
81716;SDS011;71269;44.108;3.074;2023-10-19T05:05:46;7.28;;;3.78;;
81716;SDS011;71269;44.108;3.074;2023-10-19T05:08:12;6.55;;;3.45;;
81716;SDS011;71269;44.108;3.074;2023-10-19T05:10:37;6.35;;;3.40;;
81716;SDS011;71269;44.108;3.074;2023-10-19T05:13:03;6.55;;;3.60;;
81716;SDS011;71269;44.108;3.074;2023-10-19T05:15:29;7.10;;;4.38;;
81716;SDS011;71269;44.108;3.074;2023-10-19T05:17:54;7.25;;;3.70;;
81716;SDS011;71269;44.108;3.074;2023-10-19T05:20:20;6.55;;;3.72;;
81716;SDS011;71269;44.108;3.074;2023-10-19T05:22:46;7.25;;;3.63;;
81716;SDS011;71269;44.108;3.074;2023-10-19T05:25:12;7.93;;;3.30;;
81716;SDS011;71269;44.108;3.074;2023-10-19T05:27:38;6.80;;;3.78;;
81716;SDS011;71269;44.108;3.074;2023-10-19T05:30:04;6.85;;;3.47;;
81716;SDS011;71269;44.108;3.074;2023-10-19T05:32:30;8.05;;;3.67;;
81716;SDS011;71269;44.108;3.074;2023-10-19T05:34:56;8.82;;;4.03;;
81716;SDS011;71269;44.108;3.074;2023-10-19T05:37:22;8.32;;;3.90;;
81716;SDS011;71269;44.108;3.074;2023-10-19T05:39:48;7.28;;;3.78;;
81716;SDS011;71269;44.108;3.074;2023-10-19T05:42:16;6.50;;;3.53;;
81716;SDS011;71269;44.108;3.074;2023-10-19T05:44:42;8.00;;;3.90;;
81716;SDS011;71269;44.108;3.074;2023-10-19T05:47:07;8.02;;;3.55;;
81716;SDS011;71269;44.108;3.074;2023-10-19T05:49:33;7.28;;;3.30;;
81716;SDS011;71269;44.108;3.074;2023-10-19T05:51:59;6.75;;;3.40;;
81716;SDS011;71269;44.108;3.074;2023-10-19T05:54:24;6.50;;;3.38;;
81716;SDS011;71269;44.108;3.074;2023-10-19T05:56:50;6.38;;;3.17;;
81716;SDS011;71269;44.108;3.074;2023-10-19T05:59:17;6.22;;;3.38;;
81716;SDS011;71269;44.108;3.074;2023-10-19T06:01:42;7.28;;;3.58;;
81716;SDS011;71269;44.108;3.074;2023-10-19T06:04:11;5.28;;;3.30;;
81716;SDS011;71269;44.108;3.074;2023-10-19T06:06:37;7.47;;;3.42;;
81716;SDS011;71269;44.108;3.074;2023-10-19T06:09:04;6.32;;;3.25;;
81716;SDS011;71269;44.108;3.074;2023-10-19T06:11:33;7.63;;;3.38;;
81716;SDS011;71269;44.108;3.074;2023-10-19T06:13:59;6.15;;;3.05;;
81716;SDS011;71269;44.108;3.074;2023-10-19T06:16:25;8.57;;;3.38;;
81716;SDS011;71269;44.108;3.074;2023-10-19T06:18:50;7.63;;;3.10;;
81716;SDS011;71269;44.108;3.074;2023-10-19T06:21:18;7.32;;;3.40;;
81716;SDS011;71269;44.108;3.074;2023-10-19T06:23:48;7.90;;;3.13;;
81716;SDS011;71269;44.108;3.074;2023-10-19T06:26:15;7.57;;;3.30;;
81716;SDS011;71269;44.108;3.074;2023-10-19T06:28:40;6.18;;;3.28;;
81716;SDS011;71269;44.108;3.074;2023-10-19T06:31:06;8.32;;;3.53;;
81716;SDS011;71269;44.108;3.074;2023-10-19T06:33:32;8.20;;;3.50;;
81716;SDS011;71269;44.108;3.074;2023-10-19T06:35:58;7.82;;;3.00;;
81716;SDS011;71269;44.108;3.074;2023-10-19T06:38:25;6.28;;;2.78;;
81716;SDS011;71269;44.108;3.074;2023-10-19T06:40:51;6.28;;;3.17;;
81716;SDS011;71269;44.108;3.074;2023-10-19T06:43:17;7.15;;;3.20;;
81716;SDS011;71269;44.108;3.074;2023-10-19T06:45:43;5.90;;;2.92;;
81716;SDS011;71269;44.108;3.074;2023-10-19T06:48:10;5.25;;;3.10;;
81716;SDS011;71269;44.108;3.074;2023-10-19T06:50:36;9.27;;;3.15;;
81716;SDS011;71269;44.108;3.074;2023-10-19T06:53:02;6.07;;;2.95;;
81716;SDS011;71269;44.108;3.074;2023-10-19T06:55:30;5.75;;;2.75;;
81716;SDS011;71269;44.108;3.074;2023-10-19T06:57:56;5.97;;;3.03;;
81716;SDS011;71269;44.108;3.074;2023-10-19T07:00:22;6.30;;;2.88;;
81716;SDS011;71269;44.108;3.074;2023-10-19T07:02:51;7.45;;;2.58;;
81716;SDS011;71269;44.108;3.074;2023-10-19T07:05:18;8.10;;;3.10;;
81716;SDS011;71269;44.108;3.074;2023-10-19T07:07:48;6.85;;;3.42;;
81716;SDS011;71269;44.108;3.074;2023-10-19T07:10:16;5.78;;;2.70;;
81716;SDS011;71269;44.108;3.074;2023-10-19T07:12:43;5.90;;;3.08;;
81716;SDS011;71269;44.108;3.074;2023-10-19T07:15:09;7.38;;;3.25;;
81716;SDS011;71269;44.108;3.074;2023-10-19T07:17:44;4.20;;;2.70;;
81716;SDS011;71269;44.108;3.074;2023-10-19T07:20:10;6.68;;;3.00;;
81716;SDS011;71269;44.108;3.074;2023-10-19T07:22:53;4.90;;;3.08;;
81716;SDS011;71269;44.108;3.074;2023-10-19T07:25:25;5.78;;;2.90;;
81716;SDS011;71269;44.108;3.074;2023-10-19T07:30:17;4.85;;;2.50;;
81716;SDS011;71269;44.108;3.074;2023-10-19T07:32:50;5.20;;;2.72;;
81716;SDS011;71269;44.108;3.074;2023-10-19T07:35:25;5.05;;;2.42;;
81716;SDS011;71269;44.108;3.074;2023-10-19T07:37:51;5.45;;;2.95;;
81716;SDS011;71269;44.108;3.074;2023-10-19T07:40:17;4.50;;;2.63;;
81716;SDS011;71269;44.108;3.074;2023-10-19T07:42:46;6.22;;;2.90;;
81716;SDS011;71269;44.108;3.074;2023-10-19T07:45:14;7.30;;;2.92;;
81716;SDS011;71269;44.108;3.074;2023-10-19T07:47:40;5.07;;;2.60;;
81716;SDS011;71269;44.108;3.074;2023-10-19T07:50:10;5.28;;;2.53;;
81716;SDS011;71269;44.108;3.074;2023-10-19T07:52:46;4.72;;;2.60;;
81716;SDS011;71269;44.108;3.074;2023-10-19T07:55:13;5.68;;;2.60;;
81716;SDS011;71269;44.108;3.074;2023-10-19T07:57:40;4.88;;;2.65;;
81716;SDS011;71269;44.108;3.074;2023-10-19T08:00:06;4.40;;;2.63;;
81716;SDS011;71269;44.108;3.074;2023-10-19T08:02:38;5.75;;;2.80;;
81716;SDS011;71269;44.108;3.074;2023-10-19T08:05:06;4.95;;;2.75;;
81716;SDS011;71269;44.108;3.074;2023-10-19T08:07:32;5.88;;;2.30;;
81716;SDS011;71269;44.108;3.074;2023-10-19T08:09:59;6.38;;;2.75;;
81716;SDS011;71269;44.108;3.074;2023-10-19T08:12:25;5.15;;;2.42;;
81716;SDS011;71269;44.108;3.074;2023-10-19T08:14:52;5.45;;;2.55;;
81716;SDS011;71269;44.108;3.074;2023-10-19T08:17:21;4.68;;;2.45;;
81716;SDS011;71269;44.108;3.074;2023-10-19T08:19:46;4.50;;;2.45;;
81716;SDS011;71269;44.108;3.074;2023-10-19T08:22:12;6.75;;;2.70;;
81716;SDS011;71269;44.108;3.074;2023-10-19T08:24:39;4.40;;;2.28;;
81716;SDS011;71269;44.108;3.074;2023-10-19T08:27:08;5.25;;;2.35;;
81716;SDS011;71269;44.108;3.074;2023-10-19T08:29:36;4.80;;;2.45;;
81716;SDS011;71269;44.108;3.074;2023-10-19T08:32:02;5.00;;;2.60;;
81716;SDS011;71269;44.108;3.074;2023-10-19T08:34:27;5.28;;;2.47;;
81716;SDS011;71269;44.108;3.074;2023-10-19T08:36:54;6.40;;;2.63;;
81716;SDS011;71269;44.108;3.074;2023-10-19T08:39:20;4.93;;;2.60;;
81716;SDS011;71269;44.108;3.074;2023-10-19T08:41:46;3.83;;;2.40;;
81716;SDS011;71269;44.108;3.074;2023-10-19T08:44:14;5.03;;;2.85;;
81716;SDS011;71269;44.108;3.074;2023-10-19T08:46:44;3.78;;;1.85;;
81716;SDS011;71269;44.108;3.074;2023-10-19T08:49:13;6.57;;;2.90;;
81716;SDS011;71269;44.108;3.074;2023-10-19T08:51:42;4.80;;;2.38;;
81716;SDS011;71269;44.108;3.074;2023-10-19T08:54:10;4.88;;;2.30;;
81716;SDS011;71269;44.108;3.074;2023-10-19T08:56:37;4.38;;;2.20;;
81716;SDS011;71269;44.108;3.074;2023-10-19T08:59:03;4.70;;;2.60;;
81716;SDS011;71269;44.108;3.074;2023-10-19T09:01:28;6.93;;;2.20;;
81716;SDS011;71269;44.108;3.074;2023-10-19T09:03:57;4.10;;;2.30;;
81716;SDS011;71269;44.108;3.074;2023-10-19T09:06:23;4.82;;;2.10;;
81716;SDS011;71269;44.108;3.074;2023-10-19T09:08:49;3.70;;;1.95;;
81716;SDS011;71269;44.108;3.074;2023-10-19T09:11:15;5.72;;;2.70;;
81716;SDS011;71269;44.108;3.074;2023-10-19T09:16:22;4.43;;;2.15;;
81716;SDS011;71269;44.108;3.074;2023-10-19T09:18:48;4.95;;;2.20;;
81716;SDS011;71269;44.108;3.074;2023-10-19T09:21:17;4.32;;;2.40;;
81716;SDS011;71269;44.108;3.074;2023-10-19T09:23:51;4.97;;;2.53;;
81716;SDS011;71269;44.108;3.074;2023-10-19T09:26:21;4.78;;;2.53;;
81716;SDS011;71269;44.108;3.074;2023-10-19T09:28:47;5.28;;;2.20;;
81716;SDS011;71269;44.108;3.074;2023-10-19T09:31:14;4.82;;;2.53;;
81716;SDS011;71269;44.108;3.074;2023-10-19T09:33:41;3.90;;;2.10;;
81716;SDS011;71269;44.108;3.074;2023-10-19T09:36:09;5.15;;;2.50;;
81716;SDS011;71269;44.108;3.074;2023-10-19T09:38:47;4.10;;;2.20;;
81716;SDS011;71269;44.108;3.074;2023-10-19T09:41:14;4.65;;;2.42;;
81716;SDS011;71269;44.108;3.074;2023-10-19T09:43:44;3.88;;;1.95;;
81716;SDS011;71269;44.108;3.074;2023-10-19T09:46:12;4.53;;;2.15;;
81716;SDS011;71269;44.108;3.074;2023-10-19T09:48:41;4.25;;;2.10;;
81716;SDS011;71269;44.108;3.074;2023-10-19T09:51:08;4.68;;;2.13;;
81716;SDS011;71269;44.108;3.074;2023-10-19T09:53:34;4.75;;;2.20;;
81716;SDS011;71269;44.108;3.074;2023-10-19T09:56:00;4.20;;;1.75;;
81716;SDS011;71269;44.108;3.074;2023-10-19T09:58:36;4.22;;;2.10;;
81716;SDS011;71269;44.108;3.074;2023-10-19T10:01:05;4.72;;;1.92;;
81716;SDS011;71269;44.108;3.074;2023-10-19T10:06:12;4.50;;;2.28;;
81716;SDS011;71269;44.108;3.074;2023-10-19T10:08:43;4.47;;;2.27;;
81716;SDS011;71269;44.108;3.074;2023-10-19T10:11:13;4.43;;;2.20;;
81716;SDS011;71269;44.108;3.074;2023-10-19T10:13:42;4.25;;;2.20;;
81716;SDS011;71269;44.108;3.074;2023-10-19T10:16:12;3.70;;;1.90;;
81716;SDS011;71269;44.108;3.074;2023-10-19T10:18:40;6.15;;;2.58;;
81716;SDS011;71269;44.108;3.074;2023-10-19T10:21:19;3.97;;;2.42;;
81716;SDS011;71269;44.108;3.074;2023-10-19T10:26:18;4.25;;;2.22;;
81716;SDS011;71269;44.108;3.074;2023-10-19T10:28:45;4.05;;;1.98;;
81716;SDS011;71269;44.108;3.074;2023-10-19T10:31:13;4.85;;;2.45;;
81716;SDS011;71269;44.108;3.074;2023-10-19T10:33:50;4.00;;;1.75;;
81716;SDS011;71269;44.108;3.074;2023-10-19T10:36:17;3.72;;;1.92;;
81716;SDS011;71269;44.108;3.074;2023-10-19T10:38:44;4.00;;;2.00;;
81716;SDS011;71269;44.108;3.074;2023-10-19T10:41:10;4.18;;;2.00;;
81716;SDS011;71269;44.108;3.074;2023-10-19T10:43:52;3.83;;;2.00;;
81716;SDS011;71269;44.108;3.074;2023-10-19T10:46:19;4.55;;;2.00;;
81716;SDS011;71269;44.108;3.074;2023-10-19T10:48:46;3.70;;;2.00;;
81716;SDS011;71269;44.108;3.074;2023-10-19T10:51:20;3.72;;;1.92;;
81716;SDS011;71269;44.108;3.074;2023-10-19T10:53:51;4.28;;;2.22;;
81716;SDS011;71269;44.108;3.074;2023-10-19T10:56:17;5.28;;;2.40;;
81716;SDS011;71269;44.108;3.074;2023-10-19T10:58:44;4.20;;;1.80;;
81716;SDS011;71269;44.108;3.074;2023-10-19T11:01:10;3.60;;;1.90;;
81716;SDS011;71269;44.108;3.074;2023-10-19T11:03:39;4.30;;;2.15;;
81716;SDS011;71269;44.108;3.074;2023-10-19T11:06:09;3.92;;;2.17;;
81716;SDS011;71269;44.108;3.074;2023-10-19T11:08:35;3.40;;;1.73;;
81716;SDS011;71269;44.108;3.074;2023-10-19T11:11:03;4.47;;;2.05;;
81716;SDS011;71269;44.108;3.074;2023-10-19T11:13:30;3.63;;;1.80;;
81716;SDS011;71269;44.108;3.074;2023-10-19T11:15:58;3.90;;;2.17;;
81716;SDS011;71269;44.108;3.074;2023-10-19T11:20:55;4.30;;;2.20;;
81716;SDS011;71269;44.108;3.074;2023-10-19T11:23:34;3.72;;;1.83;;
81716;SDS011;71269;44.108;3.074;2023-10-19T11:26:02;3.58;;;1.92;;
81716;SDS011;71269;44.108;3.074;2023-10-19T11:28:27;4.57;;;2.10;;
81716;SDS011;71269;44.108;3.074;2023-10-19T11:30:54;3.92;;;2.08;;
81716;SDS011;71269;44.108;3.074;2023-10-19T11:33:20;3.00;;;1.80;;
81716;SDS011;71269;44.108;3.074;2023-10-19T11:35:49;3.83;;;1.58;;
81716;SDS011;71269;44.108;3.074;2023-10-19T11:38:15;3.97;;;1.90;;
81716;SDS011;71269;44.108;3.074;2023-10-19T11:40:41;3.30;;;1.58;;
81716;SDS011;71269;44.108;3.074;2023-10-19T11:43:06;3.92;;;1.90;;
81716;SDS011;71269;44.108;3.074;2023-10-19T11:45:32;3.92;;;1.88;;
81716;SDS011;71269;44.108;3.074;2023-10-19T11:47:57;4.10;;;2.17;;
81716;SDS011;71269;44.108;3.074;2023-10-19T11:50:23;4.78;;;1.60;;
81716;SDS011;71269;44.108;3.074;2023-10-19T11:52:49;5.25;;;1.73;;
81716;SDS011;71269;44.108;3.074;2023-10-19T11:55:15;3.35;;;1.75;;
81716;SDS011;71269;44.108;3.074;2023-10-19T11:57:42;3.55;;;1.67;;
81716;SDS011;71269;44.108;3.074;2023-10-19T12:00:08;3.95;;;2.20;;
81716;SDS011;71269;44.108;3.074;2023-10-19T12:02:38;5.32;;;2.10;;
81716;SDS011;71269;44.108;3.074;2023-10-19T12:05:06;3.08;;;1.70;;
81716;SDS011;71269;44.108;3.074;2023-10-19T12:07:35;4.50;;;1.95;;
81716;SDS011;71269;44.108;3.074;2023-10-19T12:10:01;5.57;;;2.20;;
81716;SDS011;71269;44.108;3.074;2023-10-19T12:12:28;4.10;;;1.63;;
81716;SDS011;71269;44.108;3.074;2023-10-19T12:14:53;4.75;;;2.10;;
81716;SDS011;71269;44.108;3.074;2023-10-19T12:17:20;4.35;;;1.70;;
81716;SDS011;71269;44.108;3.074;2023-10-19T12:19:47;5.72;;;1.88;;
81716;SDS011;71269;44.108;3.074;2023-10-19T12:22:12;6.00;;;2.33;;
81716;SDS011;71269;44.108;3.074;2023-10-19T12:24:38;4.15;;;1.70;;
81716;SDS011;71269;44.108;3.074;2023-10-19T12:27:04;3.67;;;1.70;;
81716;SDS011;71269;44.108;3.074;2023-10-19T12:29:29;3.65;;;1.98;;
81716;SDS011;71269;44.108;3.074;2023-10-19T12:31:56;5.43;;;2.10;;
81716;SDS011;71269;44.108;3.074;2023-10-19T12:34:22;4.55;;;1.77;;
81716;SDS011;71269;44.108;3.074;2023-10-19T12:36:47;3.72;;;1.83;;
81716;SDS011;71269;44.108;3.074;2023-10-19T12:39:14;4.32;;;1.83;;
81716;SDS011;71269;44.108;3.074;2023-10-19T12:41:59;4.38;;;1.85;;
81716;SDS011;71269;44.108;3.074;2023-10-19T12:44:26;4.50;;;1.85;;
81716;SDS011;71269;44.108;3.074;2023-10-19T12:46:54;3.53;;;1.73;;
81716;SDS011;71269;44.108;3.074;2023-10-19T12:49:19;3.60;;;1.90;;
81716;SDS011;71269;44.108;3.074;2023-10-19T12:51:50;4.47;;;1.70;;
81716;SDS011;71269;44.108;3.074;2023-10-19T12:54:17;4.30;;;1.70;;
81716;SDS011;71269;44.108;3.074;2023-10-19T12:56:42;3.58;;;1.70;;
81716;SDS011;71269;44.108;3.074;2023-10-19T12:59:08;4.00;;;1.77;;
81716;SDS011;71269;44.108;3.074;2023-10-19T13:01:34;3.55;;;1.80;;
81716;SDS011;71269;44.108;3.074;2023-10-19T13:04:00;5.35;;;1.90;;
81716;SDS011;71269;44.108;3.074;2023-10-19T13:06:38;5.07;;;1.80;;
81716;SDS011;71269;44.108;3.074;2023-10-19T13:09:04;4.57;;;2.00;;
81716;SDS011;71269;44.108;3.074;2023-10-19T13:11:30;4.00;;;1.80;;
81716;SDS011;71269;44.108;3.074;2023-10-19T13:13:57;3.53;;;1.80;;
81716;SDS011;71269;44.108;3.074;2023-10-19T13:16:25;4.00;;;1.70;;
81716;SDS011;71269;44.108;3.074;2023-10-19T13:18:51;5.32;;;2.05;;
81716;SDS011;71269;44.108;3.074;2023-10-19T13:21:16;5.20;;;1.77;;
81716;SDS011;71269;44.108;3.074;2023-10-19T13:23:47;2.73;;;1.50;;
81716;SDS011;71269;44.108;3.074;2023-10-19T13:26:13;4.22;;;1.92;;
81716;SDS011;71269;44.108;3.074;2023-10-19T13:28:45;3.83;;;1.80;;
81716;SDS011;71269;44.108;3.074;2023-10-19T13:31:12;4.07;;;1.60;;
81716;SDS011;71269;44.108;3.074;2023-10-19T13:33:40;3.67;;;1.60;;
81716;SDS011;71269;44.108;3.074;2023-10-19T13:36:11;3.87;;;1.80;;
81716;SDS011;71269;44.108;3.074;2023-10-19T13:38:37;4.53;;;1.63;;
81716;SDS011;71269;44.108;3.074;2023-10-19T13:41:03;3.70;;;1.80;;
81716;SDS011;71269;44.108;3.074;2023-10-19T13:43:32;3.45;;;1.52;;
81716;SDS011;71269;44.108;3.074;2023-10-19T13:45:58;4.40;;;1.80;;
81716;SDS011;71269;44.108;3.074;2023-10-19T13:48:24;3.97;;;1.60;;
81716;SDS011;71269;44.108;3.074;2023-10-19T13:50:50;3.80;;;1.80;;
81716;SDS011;71269;44.108;3.074;2023-10-19T13:53:17;3.80;;;1.70;;
81716;SDS011;71269;44.108;3.074;2023-10-19T13:55:43;4.35;;;1.92;;
81716;SDS011;71269;44.108;3.074;2023-10-19T13:58:09;3.70;;;1.55;;
81716;SDS011;71269;44.108;3.074;2023-10-19T14:00:35;3.53;;;1.63;;
81716;SDS011;71269;44.108;3.074;2023-10-19T14:03:04;5.47;;;1.52;;
81716;SDS011;71269;44.108;3.074;2023-10-19T14:05:34;3.20;;;1.48;;
81716;SDS011;71269;44.108;3.074;2023-10-19T14:08:05;5.65;;;1.83;;
81716;SDS011;71269;44.108;3.074;2023-10-19T14:10:31;3.38;;;1.55;;
81716;SDS011;71269;44.108;3.074;2023-10-19T14:12:57;2.97;;;1.55;;
81716;SDS011;71269;44.108;3.074;2023-10-19T14:15:23;3.33;;;1.50;;
81716;SDS011;71269;44.108;3.074;2023-10-19T14:17:50;4.28;;;1.90;;
81716;SDS011;71269;44.108;3.074;2023-10-19T14:20:17;5.43;;;1.77;;
81716;SDS011;71269;44.108;3.074;2023-10-19T14:22:43;4.80;;;1.95;;
81716;SDS011;71269;44.108;3.074;2023-10-19T14:25:15;4.40;;;1.77;;
81716;SDS011;71269;44.108;3.074;2023-10-19T14:27:42;2.95;;;1.40;;
81716;SDS011;71269;44.108;3.074;2023-10-19T14:30:08;3.45;;;1.52;;
81716;SDS011;71269;44.108;3.074;2023-10-19T14:32:40;3.13;;;1.50;;
81716;SDS011;71269;44.108;3.074;2023-10-19T14:35:13;3.38;;;1.60;;
81716;SDS011;71269;44.108;3.074;2023-10-19T14:37:40;4.13;;;1.70;;
81716;SDS011;71269;44.108;3.074;2023-10-19T14:40:08;2.95;;;1.40;;
81716;SDS011;71269;44.108;3.074;2023-10-19T14:42:35;3.63;;;1.77;;
81716;SDS011;71269;44.108;3.074;2023-10-19T14:45:03;2.97;;;1.38;;
81716;SDS011;71269;44.108;3.074;2023-10-19T14:47:34;3.08;;;1.40;;
81716;SDS011;71269;44.108;3.074;2023-10-19T14:50:01;4.22;;;1.40;;
81716;SDS011;71269;44.108;3.074;2023-10-19T14:52:27;4.40;;;1.65;;
81716;SDS011;71269;44.108;3.074;2023-10-19T14:54:52;2.40;;;1.30;;
81716;SDS011;71269;44.108;3.074;2023-10-19T14:57:18;3.33;;;1.50;;
81716;SDS011;71269;44.108;3.074;2023-10-19T14:59:43;2.85;;;1.30;;
81716;SDS011;71269;44.108;3.074;2023-10-19T15:02:08;4.07;;;1.40;;
81716;SDS011;71269;44.108;3.074;2023-10-19T15:04:37;3.00;;;1.48;;
81716;SDS011;71269;44.108;3.074;2023-10-19T15:07:03;3.53;;;1.40;;
81716;SDS011;71269;44.108;3.074;2023-10-19T15:09:29;2.80;;;1.15;;
81716;SDS011;71269;44.108;3.074;2023-10-19T15:11:55;3.80;;;1.80;;
81716;SDS011;71269;44.108;3.074;2023-10-19T15:14:20;4.50;;;1.73;;
81716;SDS011;71269;44.108;3.074;2023-10-19T15:16:46;3.85;;;1.65;;